sensor_id;sensor_type;location;lat;lon;timestamp;pressure;altitude;pressure_sealevel;temperature;humidity
21102;BME280;10709;49.006;12.100;2024-03-02T00:01:48;48981.13;;;-146.00;100.00
21102;BME280;10709;49.006;12.100;2024-03-02T00:05:50;48973.28;;;-146.00;100.00
21102;BME280;10709;49.006;12.100;2024-03-02T00:09:34;48985.03;;;-146.00;100.00
21102;BME280;10709;49.006;12.100;2024-03-02T00:13:24;48973.28;;;-146.00;100.00
21102;BME280;10709;49.006;12.100;2024-03-02T00:17:04;48973.28;;;-146.00;100.00
21102;BME280;10709;49.006;12.100;2024-03-02T00:20:38;48967.41;;;-146.00;100.00
21102;BME280;10709;49.006;12.100;2024-03-02T00:27:36;48961.53;;;-146.00;100.00
21102;BME280;10709;49.006;12.100;2024-03-02T00:34:14;48969.38;;;-146.00;100.00
21102;BME280;10709;49.006;12.100;2024-03-02T00:37:23;48957.59;;;-146.00;100.00
21102;BME280;10709;49.006;12.100;2024-03-02T00:41:04;48963.50;;;-146.00;100.00
21102;BME280;10709;49.006;12.100;2024-03-02T00:44:22;48957.59;;;-146.00;100.00
21102;BME280;10709;49.006;12.100;2024-03-02T00:47:47;48945.84;;;-146.00;100.00
21102;BME280;10709;49.006;12.100;2024-03-02T00:51:05;48945.84;;;-146.00;100.00
21102;BME280;10709;49.006;12.100;2024-03-02T00:54:36;48941.94;;;-146.00;100.00
21102;BME280;10709;49.006;12.100;2024-03-02T00:57:53;48947.81;;;-146.00;100.00
21102;BME280;10709;49.006;12.100;2024-03-02T01:01:40;48957.59;;;-146.00;100.00
21102;BME280;10709;49.006;12.100;2024-03-02T01:05:36;48941.94;;;-146.00;100.00
21102;BME280;10709;49.006;12.100;2024-03-02T01:09:12;48941.94;;;-146.00;100.00
21102;BME280;10709;49.006;12.100;2024-03-02T01:12:53;48939.97;;;-146.00;100.00
21102;BME280;10709;49.006;12.100;2024-03-02T01:16:21;48936.06;;;-146.00;100.00
21102;BME280;10709;49.006;12.100;2024-03-02T01:19:55;48939.97;;;-146.00;100.00
21102;BME280;10709;49.006;12.100;2024-03-02T01:23:11;48930.19;;;-146.00;100.00
21102;BME280;10709;49.006;12.100;2024-03-02T01:25:53;48939.97;;;-146.00;100.00
21102;BME280;10709;49.006;12.100;2024-03-02T01:29:20;48941.94;;;-146.00;100.00
21102;BME280;10709;49.006;12.100;2024-03-02T01:32:40;48934.09;;;-146.00;100.00
21102;BME280;10709;49.006;12.100;2024-03-02T01:36:03;48938.03;;;-146.00;100.00
21102;BME280;10709;49.006;12.100;2024-03-02T01:43:27;48930.19;;;-146.00;100.00
21102;BME280;10709;49.006;12.100;2024-03-02T01:47:47;48930.19;;;-146.00;100.00
21102;BME280;10709;49.006;12.100;2024-03-02T01:51:27;48930.19;;;-146.00;100.00
21102;BME280;10709;49.006;12.100;2024-03-02T01:58:48;48926.25;;;-146.00;100.00
21102;BME280;10709;49.006;12.100;2024-03-02T02:01:44;48926.25;;;-146.00;100.00
21102;BME280;10709;49.006;12.100;2024-03-02T02:05:28;48918.44;;;-146.00;100.00
21102;BME280;10709;49.006;12.100;2024-03-02T02:09:03;48926.25;;;-146.00;100.00
21102;BME280;10709;49.006;12.100;2024-03-02T02:15:39;48924.31;;;-146.00;100.00
21102;BME280;10709;49.006;12.100;2024-03-02T02:18:50;48926.25;;;-146.00;100.00
21102;BME280;10709;49.006;12.100;2024-03-02T02:21:52;48922.34;;;-146.00;100.00
21102;BME280;10709;49.006;12.100;2024-03-02T02:25:41;48922.34;;;-146.00;100.00
21102;BME280;10709;49.006;12.100;2024-03-02T02:32:47;48918.44;;;-146.00;100.00
21102;BME280;10709;49.006;12.100;2024-03-02T02:36:29;48926.25;;;-146.00;100.00
21102;BME280;10709;49.006;12.100;2024-03-02T02:39:33;48918.44;;;-146.00;100.00
21102;BME280;10709;49.006;12.100;2024-03-02T02:43:08;48914.50;;;-146.00;100.00
21102;BME280;10709;49.006;12.100;2024-03-02T02:50:28;48922.34;;;-146.00;100.00
21102;BME280;10709;49.006;12.100;2024-03-02T02:53:35;48918.44;;;-146.00;100.00
21102;BME280;10709;49.006;12.100;2024-03-02T02:56:53;48918.44;;;-146.00;100.00
21102;BME280;10709;49.006;12.100;2024-03-02T03:04:50;48926.25;;;-146.00;100.00
21102;BME280;10709;49.006;12.100;2024-03-02T03:08:02;48922.34;;;-146.00;100.00
21102;BME280;10709;49.006;12.100;2024-03-02T03:11:32;48916.47;;;-146.00;100.00
21102;BME280;10709;49.006;12.100;2024-03-02T03:14:48;48914.50;;;-146.00;100.00
21102;BME280;10709;49.006;12.100;2024-03-02T03:18:04;48924.31;;;-146.00;100.00
21102;BME280;10709;49.006;12.100;2024-03-02T03:25:31;48918.44;;;-146.00;100.00
21102;BME280;10709;49.006;12.100;2024-03-02T03:29:18;48910.59;;;-146.00;100.00
21102;BME280;10709;49.006;12.100;2024-03-02T03:33:19;48910.59;;;-146.00;100.00
21102;BME280;10709;49.006;12.100;2024-03-02T03:37:26;48906.69;;;-146.00;100.00
21102;BME280;10709;49.006;12.100;2024-03-02T03:48:57;48914.50;;;-146.00;100.00
21102;BME280;10709;49.006;12.100;2024-03-02T04:00:19;48924.31;;;-146.00;100.00
21102;BME280;10709;49.006;12.100;2024-03-02T04:04:03;48914.50;;;-146.00;100.00
21102;BME280;10709;49.006;12.100;2024-03-02T04:07:03;48910.59;;;-146.00;100.00
21102;BME280;10709;49.006;12.100;2024-03-02T04:09:56;48914.50;;;-146.00;100.00
21102;BME280;10709;49.006;12.100;2024-03-02T04:12:58;48910.59;;;-146.00;100.00
21102;BME280;10709;49.006;12.100;2024-03-02T04:16:00;48908.63;;;-146.00;100.00
21102;BME280;10709;49.006;12.100;2024-03-02T04:19:13;48910.59;;;-146.00;100.00
21102;BME280;10709;49.006;12.100;2024-03-02T04:23:07;48910.59;;;-146.00;100.00
21102;BME280;10709;49.006;12.100;2024-03-02T04:25:55;48914.50;;;-146.00;100.00
21102;BME280;10709;49.006;12.100;2024-03-02T04:29:27;48910.59;;;-146.00;100.00
21102;BME280;10709;49.006;12.100;2024-03-02T04:33:21;48910.59;;;-146.00;100.00
21102;BME280;10709;49.006;12.100;2024-03-02T04:36:57;48910.59;;;-146.00;100.00
21102;BME280;10709;49.006;12.100;2024-03-02T05:00:39;48906.69;;;-146.00;100.00
21102;BME280;10709;49.006;12.100;2024-03-02T05:11:20;48916.47;;;-146.00;100.00
21102;BME280;10709;49.006;12.100;2024-03-02T05:19:02;48916.47;;;-146.00;100.00
21102;BME280;10709;49.006;12.100;2024-03-02T05:22:12;48914.50;;;-146.00;100.00
21102;BME280;10709;49.006;12.100;2024-03-02T05:25:06;48910.59;;;-146.00;100.00
21102;BME280;10709;49.006;12.100;2024-03-02T05:28:45;48914.50;;;-146.00;100.00
21102;BME280;10709;49.006;12.100;2024-03-02T05:31:56;48914.50;;;-146.00;100.00
21102;BME280;10709;49.006;12.100;2024-03-02T05:34:54;48914.50;;;-146.00;100.00
21102;BME280;10709;49.006;12.100;2024-03-02T05:38:45;48918.44;;;-146.00;100.00
21102;BME280;10709;49.006;12.100;2024-03-02T05:42:48;48920.38;;;-146.00;100.00
21102;BME280;10709;49.006;12.100;2024-03-02T05:46:22;48918.44;;;-146.00;100.00
21102;BME280;10709;49.006;12.100;2024-03-02T05:53:31;48920.38;;;-146.00;100.00
21102;BME280;10709;49.006;12.100;2024-03-02T05:57:41;48922.34;;;-146.00;100.00
21102;BME280;10709;49.006;12.100;2024-03-02T06:01:00;48922.34;;;-146.00;100.00
21102;BME280;10709;49.006;12.100;2024-03-02T06:04:54;48916.47;;;-146.00;100.00
21102;BME280;10709;49.006;12.100;2024-03-02T06:07:20;48916.47;;;-146.00;100.00
21102;BME280;10709;49.006;12.100;2024-03-02T06:09:46;48924.31;;;-146.00;100.00
21102;BME280;10709;49.006;12.100;2024-03-02T06:12:14;48914.50;;;-146.00;100.00
21102;BME280;10709;49.006;12.100;2024-03-02T06:14:41;48912.56;;;-146.00;100.00
21102;BME280;10709;49.006;12.100;2024-03-02T06:17:08;48910.59;;;-146.00;100.00
21102;BME280;10709;49.006;12.100;2024-03-02T06:19:34;48914.50;;;-146.00;100.00
21102;BME280;10709;49.006;12.100;2024-03-02T06:22:00;48916.47;;;-146.00;100.00
21102;BME280;10709;49.006;12.100;2024-03-02T06:24:27;48912.56;;;-146.00;100.00
21102;BME280;10709;49.006;12.100;2024-03-02T06:26:53;48908.63;;;-146.00;100.00
21102;BME280;10709;49.006;12.100;2024-03-02T06:29:20;48918.44;;;-146.00;100.00
21102;BME280;10709;49.006;12.100;2024-03-02T06:31:48;48908.63;;;-146.00;100.00
21102;BME280;10709;49.006;12.100;2024-03-02T06:34:18;48902.75;;;-146.00;100.00
21102;BME280;10709;49.006;12.100;2024-03-02T06:36:46;48912.56;;;-146.00;100.00
21102;BME280;10709;49.006;12.100;2024-03-02T06:39:13;48910.59;;;-146.00;100.00
21102;BME280;10709;49.006;12.100;2024-03-02T06:41:39;48910.59;;;-146.00;100.00
21102;BME280;10709;49.006;12.100;2024-03-02T06:44:06;48908.63;;;-146.00;100.00
21102;BME280;10709;49.006;12.100;2024-03-02T06:46:32;48908.63;;;-146.00;100.00
21102;BME280;10709;49.006;12.100;2024-03-02T06:48:59;48902.75;;;-146.00;100.00
21102;BME280;10709;49.006;12.100;2024-03-02T06:51:26;48902.75;;;-146.00;100.00
21102;BME280;10709;49.006;12.100;2024-03-02T06:53:54;48906.69;;;-146.00;100.00
21102;BME280;10709;49.006;12.100;2024-03-02T06:56:21;48906.69;;;-146.00;100.00
21102;BME280;10709;49.006;12.100;2024-03-02T06:58:47;48904.72;;;-146.00;100.00
21102;BME280;10709;49.006;12.100;2024-03-02T07:01:14;48900.78;;;-146.00;100.00
21102;BME280;10709;49.006;12.100;2024-03-02T07:03:41;48898.84;;;-146.00;100.00
21102;BME280;10709;49.006;12.100;2024-03-02T07:06:08;48898.84;;;-146.00;100.00
21102;BME280;10709;49.006;12.100;2024-03-02T07:08:34;48898.84;;;-146.00;100.00
21102;BME280;10709;49.006;12.100;2024-03-02T07:11:01;48891.00;;;-146.00;100.00
21102;BME280;10709;49.006;12.100;2024-03-02T07:13:32;48894.91;;;-146.00;100.00
21102;BME280;10709;49.006;12.100;2024-03-02T07:20:00;48891.00;;;-146.00;100.00
21102;BME280;10709;49.006;12.100;2024-03-02T07:23:16;48894.91;;;-146.00;100.00
21102;BME280;10709;49.006;12.100;2024-03-02T07:26:11;48894.91;;;-146.00;100.00
21102;BME280;10709;49.006;12.100;2024-03-02T07:29:21;48891.00;;;-146.00;100.00
21102;BME280;10709;49.006;12.100;2024-03-02T07:32:55;48894.91;;;-146.00;100.00
21102;BME280;10709;49.006;12.100;2024-03-02T07:50:02;48883.16;;;-146.00;100.00
21102;BME280;10709;49.006;12.100;2024-03-02T07:52:30;48891.00;;;-146.00;100.00
21102;BME280;10709;49.006;12.100;2024-03-02T07:54:56;48891.00;;;-146.00;100.00
21102;BME280;10709;49.006;12.100;2024-03-02T07:57:23;48894.91;;;-146.00;100.00
21102;BME280;10709;49.006;12.100;2024-03-02T07:59:50;48894.91;;;-146.00;100.00
21102;BME280;10709;49.006;12.100;2024-03-02T08:02:17;48902.75;;;-146.00;100.00
21102;BME280;10709;49.006;12.100;2024-03-02T08:04:44;48898.84;;;-146.00;100.00
21102;BME280;10709;49.006;12.100;2024-03-02T08:07:51;48892.97;;;-146.00;100.00
21102;BME280;10709;49.006;12.100;2024-03-02T08:11:13;48904.72;;;-146.00;100.00
21102;BME280;10709;49.006;12.100;2024-03-02T08:14:43;48898.84;;;-146.00;100.00
21102;BME280;10709;49.006;12.100;2024-03-02T08:18:19;48904.72;;;-146.00;100.00
21102;BME280;10709;49.006;12.100;2024-03-02T08:22:30;48902.75;;;-146.00;100.00
21102;BME280;10709;49.006;12.100;2024-03-02T08:25:32;48898.84;;;-146.00;100.00
21102;BME280;10709;49.006;12.100;2024-03-02T08:28:50;48898.84;;;-146.00;100.00
21102;BME280;10709;49.006;12.100;2024-03-02T08:31:32;48898.84;;;-146.00;100.00
21102;BME280;10709;49.006;12.100;2024-03-02T08:41:34;48898.84;;;-146.00;100.00
21102;BME280;10709;49.006;12.100;2024-03-02T08:44:46;48900.78;;;-146.00;100.00
21102;BME280;10709;49.006;12.100;2024-03-02T08:47:44;48902.75;;;-146.00;100.00
21102;BME280;10709;49.006;12.100;2024-03-02T08:51:14;48896.88;;;-146.00;100.00
21102;BME280;10709;49.006;12.100;2024-03-02T08:54:16;48898.84;;;-146.00;100.00
21102;BME280;10709;49.006;12.100;2024-03-02T09:00:51;48904.72;;;-146.00;100.00
21102;BME280;10709;49.006;12.100;2024-03-02T09:03:48;48898.84;;;-146.00;100.00
21102;BME280;10709;49.006;12.100;2024-03-02T09:06:15;48894.91;;;-146.00;100.00
21102;BME280;10709;49.006;12.100;2024-03-02T09:08:47;48894.91;;;-146.00;100.00
21102;BME280;10709;49.006;12.100;2024-03-02T09:11:24;48908.63;;;-146.00;100.00
21102;BME280;10709;49.006;12.100;2024-03-02T09:13:54;48906.69;;;-146.00;100.00
21102;BME280;10709;49.006;12.100;2024-03-02T09:16:56;48904.72;;;-146.00;100.00
21102;BME280;10709;49.006;12.100;2024-03-02T09:19:47;48906.69;;;-146.00;100.00
21102;BME280;10709;49.006;12.100;2024-03-02T09:22:21;48906.69;;;-146.00;100.00
21102;BME280;10709;49.006;12.100;2024-03-02T09:24:50;48906.69;;;-146.00;100.00
21102;BME280;10709;49.006;12.100;2024-03-02T09:27:19;48902.75;;;-146.00;100.00
21102;BME280;10709;49.006;12.100;2024-03-02T09:29:48;48912.56;;;-146.00;100.00
21102;BME280;10709;49.006;12.100;2024-03-02T09:32:24;48914.50;;;-146.00;100.00
21102;BME280;10709;49.006;12.100;2024-03-02T09:34:55;48908.63;;;-146.00;100.00
21102;BME280;10709;49.006;12.100;2024-03-02T09:37:42;48922.34;;;-146.00;100.00
21102;BME280;10709;49.006;12.100;2024-03-02T09:40:24;48926.25;;;-146.00;100.00
21102;BME280;10709;49.006;12.100;2024-03-02T09:42:50;48924.31;;;-146.00;100.00
21102;BME280;10709;49.006;12.100;2024-03-02T09:45:22;48930.19;;;-146.00;100.00
21102;BME280;10709;49.006;12.100;2024-03-02T09:47:50;48930.19;;;-146.00;100.00
21102;BME280;10709;49.006;12.100;2024-03-02T09:50:17;48920.38;;;-146.00;100.00
21102;BME280;10709;49.006;12.100;2024-03-02T09:52:48;48930.19;;;-146.00;100.00
21102;BME280;10709;49.006;12.100;2024-03-02T09:55:20;48938.03;;;-146.00;100.00
21102;BME280;10709;49.006;12.100;2024-03-02T09:57:49;48928.22;;;-146.00;100.00
21102;BME280;10709;49.006;12.100;2024-03-02T10:00:18;48941.94;;;-146.00;100.00
21102;BME280;10709;49.006;12.100;2024-03-02T10:03:00;48934.09;;;-146.00;100.00
21102;BME280;10709;49.006;12.100;2024-03-02T10:05:44;48941.94;;;-146.00;100.00
21102;BME280;10709;49.006;12.100;2024-03-02T10:08:43;48943.91;;;-146.00;100.00
21102;BME280;10709;49.006;12.100;2024-03-02T10:11:35;48949.78;;;-146.00;100.00
21102;BME280;10709;49.006;12.100;2024-03-02T10:16:40;48959.56;;;-146.00;100.00
21102;BME280;10709;49.006;12.100;2024-03-02T10:21:54;48945.84;;;-146.00;100.00
21102;BME280;10709;49.006;12.100;2024-03-02T10:24:22;48947.81;;;-146.00;100.00
21102;BME280;10709;49.006;12.100;2024-03-02T10:26:49;48953.69;;;-146.00;100.00
21102;BME280;10709;49.006;12.100;2024-03-02T10:29:16;48959.56;;;-146.00;100.00
21102;BME280;10709;49.006;12.100;2024-03-02T10:31:46;48969.38;;;-146.00;100.00
21102;BME280;10709;49.006;12.100;2024-03-02T10:34:13;48985.03;;;-146.00;100.00
21102;BME280;10709;49.006;12.100;2024-03-02T10:36:43;48981.13;;;-146.00;100.00
21102;BME280;10709;49.006;12.100;2024-03-02T10:39:13;48981.13;;;-146.00;100.00
21102;BME280;10709;49.006;12.100;2024-03-02T10:41:40;48998.75;;;-146.00;100.00
21102;BME280;10709;49.006;12.100;2024-03-02T10:44:08;48994.84;;;-146.00;100.00
21102;BME280;10709;49.006;12.100;2024-03-02T10:46:37;49008.53;;;-146.00;100.00
21102;BME280;10709;49.006;12.100;2024-03-02T10:49:05;49010.50;;;-146.00;100.00
21102;BME280;10709;49.006;12.100;2024-03-02T10:51:34;49004.63;;;-146.00;100.00
21102;BME280;10709;49.006;12.100;2024-03-02T10:54:04;48990.91;;;-146.00;100.00
21102;BME280;10709;49.006;12.100;2024-03-02T10:56:38;49024.22;;;-146.00;100.00
21102;BME280;10709;49.006;12.100;2024-03-02T10:59:26;49020.31;;;-146.00;100.00
21102;BME280;10709;49.006;12.100;2024-03-02T11:01:56;49020.31;;;-146.00;100.00
21102;BME280;10709;49.006;12.100;2024-03-02T11:04:31;49035.97;;;-146.00;100.00
21102;BME280;10709;49.006;12.100;2024-03-02T11:07:17;49024.22;;;-146.00;100.00
21102;BME280;10709;49.006;12.100;2024-03-02T11:09:57;49012.47;;;-146.00;100.00
21102;BME280;10709;49.006;12.100;2024-03-02T11:12:48;49026.19;;;-146.00;100.00
21102;BME280;10709;49.006;12.100;2024-03-02T11:15:18;49047.72;;;-146.00;100.00
21102;BME280;10709;49.006;12.100;2024-03-02T11:17:48;49047.72;;;-146.00;100.00
21102;BME280;10709;49.006;12.100;2024-03-02T11:20:15;49063.41;;;-146.00;100.00
21102;BME280;10709;49.006;12.100;2024-03-02T11:22:42;49053.59;;;-146.00;100.00
21102;BME280;10709;49.006;12.100;2024-03-02T11:25:24;49063.41;;;-146.00;100.00
21102;BME280;10709;49.006;12.100;2024-03-02T11:33:02;49063.41;;;-146.00;100.00
21102;BME280;10709;49.006;12.100;2024-03-02T11:35:41;49061.44;;;-146.00;100.00
21102;BME280;10709;49.006;12.100;2024-03-02T11:38:15;49081.03;;;-146.00;100.00
21102;BME280;10709;49.006;12.100;2024-03-02T11:40:43;49053.59;;;-146.00;100.00
21102;BME280;10709;49.006;12.100;2024-03-02T11:43:13;49055.56;;;-146.00;100.00
21102;BME280;10709;49.006;12.100;2024-03-02T11:45:42;49081.03;;;-146.00;100.00
21102;BME280;10709;49.006;12.100;2024-03-02T11:48:13;49055.56;;;-146.00;100.00
21102;BME280;10709;49.006;12.100;2024-03-02T11:50:42;49069.28;;;-146.00;100.00
21102;BME280;10709;49.006;12.100;2024-03-02T11:53:10;49061.44;;;-146.00;100.00
21102;BME280;10709;49.006;12.100;2024-03-02T11:55:39;49088.88;;;-146.00;99.94
21102;BME280;10709;49.006;12.100;2024-03-02T11:58:07;49094.75;;;-146.00;99.07
21102;BME280;10709;49.006;12.100;2024-03-02T12:00:34;49086.91;;;-146.00;100.00
21102;BME280;10709;49.006;12.100;2024-03-02T12:03:04;49102.59;;;-146.00;97.05
21102;BME280;10709;49.006;12.100;2024-03-02T12:05:33;49083.00;;;-146.00;98.53
21102;BME280;10709;49.006;12.100;2024-03-02T12:08:02;49090.81;;;-146.00;98.85
21102;BME280;10709;49.006;12.100;2024-03-02T12:10:30;49102.59;;;-146.00;98.29
21102;BME280;10709;49.006;12.100;2024-03-02T12:12:59;49083.00;;;-146.00;100.00
21102;BME280;10709;49.006;12.100;2024-03-02T12:15:28;49094.75;;;-146.00;100.00
21102;BME280;10709;49.006;12.100;2024-03-02T12:17:55;49083.00;;;-146.00;100.00
21102;BME280;10709;49.006;12.100;2024-03-02T12:20:23;49067.31;;;-146.00;99.59
21102;BME280;10709;49.006;12.100;2024-03-02T12:22:51;49086.91;;;-146.00;96.15
21102;BME280;10709;49.006;12.100;2024-03-02T12:25:23;49110.41;;;-146.00;94.62
21102;BME280;10709;49.006;12.100;2024-03-02T12:27:52;49102.59;;;-146.00;94.62
21102;BME280;10709;49.006;12.100;2024-03-02T12:30:20;49094.75;;;-146.00;93.19
21102;BME280;10709;49.006;12.100;2024-03-02T12:32:47;49124.13;;;-146.00;93.61
21102;BME280;10709;49.006;12.100;2024-03-02T12:35:14;49110.41;;;-146.00;95.86
21102;BME280;10709;49.006;12.100;2024-03-02T12:37:48;49137.84;;;-146.00;96.93
21102;BME280;10709;49.006;12.100;2024-03-02T12:40:18;49141.75;;;-146.00;93.54
21102;BME280;10709;49.006;12.100;2024-03-02T12:42:46;49141.75;;;-146.00;94.66
21102;BME280;10709;49.006;12.100;2024-03-02T12:45:17;49122.19;;;-146.00;93.48
21102;BME280;10709;49.006;12.100;2024-03-02T12:47:51;49114.34;;;-146.00;93.84
21102;BME280;10709;49.006;12.100;2024-03-02T12:50:19;49094.75;;;-146.00;90.69
21102;BME280;10709;49.006;12.100;2024-03-02T12:52:53;49114.34;;;-146.00;91.06
21102;BME280;10709;49.006;12.100;2024-03-02T12:55:21;49133.94;;;-146.00;91.92
21102;BME280;10709;49.006;12.100;2024-03-02T12:57:51;49161.34;;;-146.00;92.85
21102;BME280;10709;49.006;12.100;2024-03-02T13:00:20;49114.34;;;-146.00;94.78
21102;BME280;10709;49.006;12.100;2024-03-02T13:02:47;49106.50;;;-146.00;94.09
21102;BME280;10709;49.006;12.100;2024-03-02T13:05:15;49114.34;;;-146.00;94.39
21102;BME280;10709;49.006;12.100;2024-03-02T13:07:42;49094.75;;;-146.00;94.74
21102;BME280;10709;49.006;12.100;2024-03-02T13:10:08;49133.94;;;-146.00;93.77
21102;BME280;10709;49.006;12.100;2024-03-02T13:12:36;49098.66;;;-146.00;92.67
21102;BME280;10709;49.006;12.100;2024-03-02T13:15:04;49114.34;;;-146.00;92.14
21102;BME280;10709;49.006;12.100;2024-03-02T13:17:34;49112.38;;;-146.00;93.38
21102;BME280;10709;49.006;12.100;2024-03-02T13:20:04;49135.88;;;-146.00;92.42
21102;BME280;10709;49.006;12.100;2024-03-02T13:22:34;49114.34;;;-146.00;93.06
21102;BME280;10709;49.006;12.100;2024-03-02T13:25:01;49133.94;;;-146.00;92.63
21102;BME280;10709;49.006;12.100;2024-03-02T13:27:31;49149.59;;;-146.00;93.74
21102;BME280;10709;49.006;12.100;2024-03-02T13:29:59;49151.56;;;-146.00;93.20
21102;BME280;10709;49.006;12.100;2024-03-02T13:32:26;49106.50;;;-146.00;93.56
21102;BME280;10709;49.006;12.100;2024-03-02T13:34:52;49124.13;;;-146.00;93.58
21102;BME280;10709;49.006;12.100;2024-03-02T13:37:20;49110.41;;;-146.00;94.67
21102;BME280;10709;49.006;12.100;2024-03-02T13:39:47;49133.94;;;-146.00;94.12
21102;BME280;10709;49.006;12.100;2024-03-02T13:42:14;49153.53;;;-146.00;93.72
21102;BME280;10709;49.006;12.100;2024-03-02T13:44:45;49122.19;;;-146.00;93.22
21102;BME280;10709;49.006;12.100;2024-03-02T13:47:14;49108.47;;;-146.00;93.00
21102;BME280;10709;49.006;12.100;2024-03-02T13:49:44;49128.06;;;-146.00;92.22
21102;BME280;10709;49.006;12.100;2024-03-02T13:52:13;49128.06;;;-146.00;92.72
21102;BME280;10709;49.006;12.100;2024-03-02T13:54:41;49145.69;;;-146.00;91.99
21102;BME280;10709;49.006;12.100;2024-03-02T13:57:09;49141.75;;;-146.00;92.18
21102;BME280;10709;49.006;12.100;2024-03-02T13:59:37;49083.00;;;-146.00;92.34
21102;BME280;10709;49.006;12.100;2024-03-02T14:02:07;49118.25;;;-146.00;92.62
21102;BME280;10709;49.006;12.100;2024-03-02T14:04:36;49149.59;;;-146.00;92.17
21102;BME280;10709;49.006;12.100;2024-03-02T14:07:04;49098.66;;;-146.00;92.95
21102;BME280;10709;49.006;12.100;2024-03-02T14:09:34;49086.91;;;-146.00;92.18
21102;BME280;10709;49.006;12.100;2024-03-02T14:12:03;49141.75;;;-146.00;92.06
21102;BME280;10709;49.006;12.100;2024-03-02T14:14:30;49130.00;;;-146.00;91.43
21102;BME280;10709;49.006;12.100;2024-03-02T14:16:57;49118.25;;;-146.00;90.78
21102;BME280;10709;49.006;12.100;2024-03-02T14:19:27;49126.09;;;-146.00;91.73
21102;BME280;10709;49.006;12.100;2024-03-02T14:21:54;49131.97;;;-146.00;91.79
21102;BME280;10709;49.006;12.100;2024-03-02T14:24:20;49157.44;;;-146.00;91.98
21102;BME280;10709;49.006;12.100;2024-03-02T14:26:50;49104.53;;;-146.00;92.43
21102;BME280;10709;49.006;12.100;2024-03-02T14:29:19;49126.09;;;-146.00;93.10
21102;BME280;10709;49.006;12.100;2024-03-02T14:31:46;49122.19;;;-146.00;92.93
21102;BME280;10709;49.006;12.100;2024-03-02T14:34:15;49102.59;;;-146.00;92.32
21102;BME280;10709;49.006;12.100;2024-03-02T14:36:42;49102.59;;;-146.00;92.07
21102;BME280;10709;49.006;12.100;2024-03-02T14:39:13;49122.19;;;-146.00;92.27
21102;BME280;10709;49.006;12.100;2024-03-02T14:41:40;49106.50;;;-146.00;92.51
21102;BME280;10709;49.006;12.100;2024-03-02T14:44:07;49118.25;;;-146.00;91.92
21102;BME280;10709;49.006;12.100;2024-03-02T14:46:33;49102.59;;;-146.00;92.07
21102;BME280;10709;49.006;12.100;2024-03-02T14:49:00;49118.25;;;-146.00;92.38
21102;BME280;10709;49.006;12.100;2024-03-02T14:51:27;49098.66;;;-146.00;91.10
21102;BME280;10709;49.006;12.100;2024-03-02T14:53:53;49106.50;;;-146.00;91.46
21102;BME280;10709;49.006;12.100;2024-03-02T14:56:20;49143.72;;;-146.00;90.89
21102;BME280;10709;49.006;12.100;2024-03-02T14:58:46;49104.53;;;-146.00;90.69
21102;BME280;10709;49.006;12.100;2024-03-02T15:01:13;49141.75;;;-146.00;90.73
21102;BME280;10709;49.006;12.100;2024-03-02T15:03:40;49098.66;;;-146.00;89.52
21102;BME280;10709;49.006;12.100;2024-03-02T15:06:07;49118.25;;;-146.00;90.15
21102;BME280;10709;49.006;12.100;2024-03-02T15:08:34;49118.25;;;-146.00;89.83
21102;BME280;10709;49.006;12.100;2024-03-02T15:11:01;49120.22;;;-146.00;89.29
21102;BME280;10709;49.006;12.100;2024-03-02T15:13:30;49118.25;;;-146.00;88.83
21102;BME280;10709;49.006;12.100;2024-03-02T15:15:57;49098.66;;;-146.00;88.23
21102;BME280;10709;49.006;12.100;2024-03-02T15:18:23;49110.41;;;-146.00;88.61
21102;BME280;10709;49.006;12.100;2024-03-02T15:20:50;49110.41;;;-146.00;87.89
21102;BME280;10709;49.006;12.100;2024-03-02T15:23:17;49124.13;;;-146.00;88.60
21102;BME280;10709;49.006;12.100;2024-03-02T15:25:44;49084.94;;;-146.00;88.29
21102;BME280;10709;49.006;12.100;2024-03-02T15:28:10;49120.22;;;-146.00;88.15
21102;BME280;10709;49.006;12.100;2024-03-02T15:30:37;49102.59;;;-146.00;89.66
21102;BME280;10709;49.006;12.100;2024-03-02T15:33:04;49075.16;;;-146.00;88.73
21102;BME280;10709;49.006;12.100;2024-03-02T15:35:30;49130.00;;;-146.00;88.99
21102;BME280;10709;49.006;12.100;2024-03-02T15:37:57;49143.72;;;-146.00;88.87
21102;BME280;10709;49.006;12.100;2024-03-02T15:40:24;49098.66;;;-146.00;88.71
21102;BME280;10709;49.006;12.100;2024-03-02T15:42:51;49092.78;;;-146.00;89.05
21102;BME280;10709;49.006;12.100;2024-03-02T15:45:17;49108.47;;;-146.00;88.31
21102;BME280;10709;49.006;12.100;2024-03-02T15:47:44;49100.63;;;-146.00;88.43
21102;BME280;10709;49.006;12.100;2024-03-02T15:50:12;49088.88;;;-146.00;88.28
21102;BME280;10709;49.006;12.100;2024-03-02T15:52:41;49094.75;;;-146.00;88.68
21102;BME280;10709;49.006;12.100;2024-03-02T15:55:08;49153.53;;;-146.00;88.32
21102;BME280;10709;49.006;12.100;2024-03-02T15:57:35;49098.66;;;-146.00;88.99
21102;BME280;10709;49.006;12.100;2024-03-02T16:00:03;49133.94;;;-146.00;88.64
21102;BME280;10709;49.006;12.100;2024-03-02T16:02:31;49157.44;;;-146.00;89.54
21102;BME280;10709;49.006;12.100;2024-03-02T16:04:58;49122.19;;;-146.00;89.12
21102;BME280;10709;49.006;12.100;2024-03-02T16:07:24;49133.94;;;-146.00;89.25
21102;BME280;10709;49.006;12.100;2024-03-02T16:09:51;49137.84;;;-146.00;90.27
21102;BME280;10709;49.006;12.100;2024-03-02T16:12:19;49114.34;;;-146.00;90.07